アティラウ の空港の天気 - METARとTAF

Atyrau Airport ( UATG / GUW ) - カザフスタン Atyrau
飛行場実況気象(Metar)
観測時間11/14 22:30 ORAT (11/14 17:30 UTC)
風向・風速東 4m/s
視程10km以上
天気現象
なし
気温-7℃
湿度49%
気圧1037hPa
METARUATG 141730Z 10004MPS CAVOK M07/M16 Q1037 R14/CLRD70 NOSIG RMK QFE780/1040
過去の天気等 Google飛行場航空写真 Wunderground天気予報

過去48時間のMETAR

飛行場予報(TAF)
発表時間: 11/14 22:02 ORAT (11/14 17:02 UTC)
予報対象時間: 14日23時 ORAT ~ 15日23時 ORAT
風向・風速東 5m/s
視程10km以上
全天の4割程度の雲 雲底高度 910m
15日5時 ORAT ~ 15日7時 ORAT に徐々に
風向・風速東 10m/s
TAF UATG 141702Z 1418/1518 08005MPS 9999 SCT030 TX02/1510Z TNM11/1502Z
BECMG 1500/1502 09010MPS